Ana Sayfa
METAR-TAF:

METAR-TAF

Havaalanları :

Nampa, Idaho, Amerika Birleşik Devletleri

Enlem: 43-34-53N, Boylam: 116-31-23W, yükseklik: 773 m

Güncel hava durumu gözlemi

Rapor saat 09:35 UTC de 10 dakika önce yapıldı.
Rüzgar kuzeybatıdan 8 kt
Sıcaklık 2°C
Nem 100%
Basınç 1012 hPa
Görüş mesafesi: 16.1 km
400 ft yükseklikte parçalı çok bulutlu
2600 ft yükseklikte parçalı çok bulutlu
3200 ft yükseklikte çok bulutlu

METAR: KMAN 140935Z AUTO 31008KT 10SM BKN004 BKN026 OVC032 02/02 A2989 RMK A01

Saat: 02:45 (09:45 UTC)


TAF: eksik

4.000'den fazla havaalanı için hava durumu gözlemleri ve tahminleri (METAR ve TAF raporları).

Kullanılabilir istasyonlar harita üzerinde sarı ve kırmızı noktalarla gösterilir.

İstasyonun adını görmek için fareyi noktanın üzerinde gezdirin.

Sonrasında hava gözlem ve tahminlerini görmek için tıklayın.

Haritayı değiştirmek için: yaklaştırmak için siyah artı işaretli yeşil düğmeye ve uzaklaştırmak için de eksi işaretli düğmeye hızla tıklayın; bitişik haritalar için yeşil okları kullanın.


METAR-TAF: